Time;durP1;ratioP1;P1;durP2;ratioP2;P2;SDS_P1;SDS_P2;PMS_P1;PMS_P2;Temp;Humidity;BMP_temperature;BMP_pressure;BME280_temperature;BME280_humidity;BME280_pressure;Samples;Min_cycle;Max_cycle;Signal;HPM_P1;HPM_P2
2021/01/20 00:00:56;;;;;;;;;;;;;;;21.99;46.95;99988.41;2063877;28;3945;-69
2021/01/20 00:01:56;;;;;;;;;;;;;;;21.98;47.01;99995.34;2062427;28;3815;-68
2021/01/20 00:02:56;;;;;;;;;;;;;;;21.99;46.91;99994.13;2051304;28;3997;-68
2021/01/20 00:03:56;;;;;;;;;;;;;;;21.95;47.00;99988.38;2053926;28;3929;-69
2021/01/20 00:04:57;;;;;;;;;;;;;;;21.98;46.76;99999.00;2060022;28;3986;-69
2021/01/20 00:05:57;;;;;;;;;;;;;;;21.99;46.71;99997.78;2061306;28;4069;-68
2021/01/20 00:06:57;;;;;;;;;;;;;;;22.00;46.55;99992.94;2060774;28;3790;-69
2021/01/20 00:07:57;;;;;;;;;;;;;;;22.00;46.61;99992.94;2052848;28;5100;-69
2021/01/20 00:08:57;;;;;;;;;;;;;;;21.99;46.70;99988.41;2053020;28;3849;-68
2021/01/20 00:09:57;;;;;;;;;;;;;;;22.00;46.57;99998.63;2061971;28;3944;-69
2021/01/20 00:10:57;;;;;;;;;;;;;;;22.02;46.56;99984.81;2062076;28;3815;-69
2021/01/20 00:11:57;;;;;;;;;;;;;;;22.01;46.49;99991.72;2060339;28;3787;-69
2021/01/20 00:12:57;;;;;;;;;;;;;;;22.02;46.54;99993.34;2061245;28;3829;-70
2021/01/20 00:13:57;;;;;;;;;;;;;;;21.99;46.59;99994.13;2061361;28;3813;-70
2021/01/20 00:14:58;;;;;;;;;;;;;;;21.88;46.65;99991.09;2053174;28;4112;-69
2021/01/20 00:15:58;;;;;;;;;;;;;;;21.83;46.68;99990.56;2053888;28;3796;-67
2021/01/20 00:16:58;;;;;;;;;;;;;;;21.90;46.47;99985.84;2061029;28;3947;-68
2021/01/20 00:17:58;;;;;;;;;;;;;;;21.94;46.18;99992.41;2061240;28;3960;-68
2021/01/20 00:18:58;;;;;;;;;;;;;;;21.98;46.17;99992.50;2061636;28;4016;-68
2021/01/20 00:19:58;;;;;;;;;;;;;;;21.96;46.11;99995.69;2061092;28;3840;-67
2021/01/20 00:20:58;;;;;;;;;;;;;;;21.96;46.14;100000.56;2061762;28;3961;-68
2021/01/20 00:21:58;;;;;;;;;;;;;;;21.90;46.24;99993.56;2061678;28;4085;-68
2021/01/20 00:22:58;;;;;;;;;;;;;;;21.91;46.12;100003.75;2063149;28;3817;-68
2021/01/20 00:23:59;;;;;;;;;;;;;;;21.88;46.14;99995.97;2053268;28;3996;-68
2021/01/20 00:24:59;;;;;;;;;;;;;;;21.92;46.10;100011.09;2052435;28;3976;-66
2021/01/20 00:25:59;;;;;;;;;;;;;;;21.90;46.04;100002.09;2053086;28;4073;-66
2021/01/20 00:26:59;;;;;;;;;;;;;;;21.91;46.14;100004.56;2053410;28;3833;-68
2021/01/20 00:27:59;;;;;;;;;;;;;;;21.93;45.93;100002.16;2052677;28;3805;-68
2021/01/20 00:28:59;;;;;;;;;;;;;;;21.93;46.13;100001.34;2054461;28;3955;-68
2021/01/20 00:29:59;;;;;;;;;;;;;;;21.91;45.97;99998.84;2062508;28;3983;-68
2021/01/20 00:31:00;;;;;;;;;;;;;;;21.92;45.98;99999.72;2061689;28;4294;-68
2021/01/20 00:32:00;;;;;;;;;;;;;;;21.94;46.02;100000.94;2052100;28;4023;-67
2021/01/20 00:33:00;;;;;;;;;;;;;;;21.93;45.84;100004.19;2052948;28;3910;-68
2021/01/20 00:34:00;;;;;;;;;;;;;;;21.94;46.09;100008.66;2052892;28;3792;-69
2021/01/20 00:35:00;;;;;;;;;;;;;;;21.96;46.08;100003.44;2053260;28;3783;-68
2021/01/20 00:36:00;;;;;;;;;;;;;;;21.95;46.18;100010.34;2061296;28;3982;-68
2021/01/20 00:37:00;;;;;;;;;;;;;;;21.95;45.96;100004.63;2062055;28;4565;-68
2021/01/20 00:38:00;;;;;;;;;;;;;;;21.92;46.06;100006.22;2061946;28;3886;-68
2021/01/20 00:39:01;;;;;;;;;;;;;;;21.92;46.08;100011.91;2059929;28;3981;-67
2021/01/20 00:40:01;;;;;;;;;;;;;;;21.91;46.03;100003.75;2062069;28;3823;-70
2021/01/20 00:41:01;;;;;;;;;;;;;;;21.89;46.16;100015.53;2062645;28;4031;-68
2021/01/20 00:42:01;;;;;;;;;;;;;;;21.87;46.25;100011.41;2061273;28;3872;-67
2021/01/20 00:43:01;;;;;;;;;;;;;;;21.87;46.20;100009.38;2061925;28;4171;-67
2021/01/20 00:44:01;;;;;;;;;;;;;;;21.85;46.28;100008.09;2061613;28;3958;-70
2021/01/20 00:45:01;;;;;;;;;;;;;;;21.83;46.33;100008.47;2061894;28;3805;-69
2021/01/20 00:46:01;;;;;;;;;;;;;;;21.84;46.30;100010.13;2061301;28;4023;-69
2021/01/20 00:47:01;;;;;;;;;;;;;;;21.83;46.30;100005.63;2052947;28;4006;-69
2021/01/20 00:48:02;;;;;;;;;;;;;;;21.85;46.19;100008.09;2052463;28;3808;-69
2021/01/20 00:49:04;;;;;;;;;;;;;;;21.86;46.25;100013.44;2056784;28;3864;-70
2021/01/20 00:50:08;;;;;;;;;;;;;;;21.86;46.13;100012.59;2050753;28;3863;-68
2021/01/20 00:51:08;;;;;;;;;;;;;;;21.87;46.24;100012.22;2061945;28;3772;-68
2021/01/20 00:52:08;;;;;;;;;;;;;;;21.87;46.19;100015.06;2060649;28;3963;-68
2021/01/20 00:53:08;;;;;;;;;;;;;;;21.86;46.17;100016.28;2061434;28;3816;-68
2021/01/20 00:54:08;;;;;;;;;;;;;;;21.86;46.04;100018.28;2062391;28;3935;-68
2021/01/20 00:55:10;;;;;;;;;;;;;;;21.89;46.15;100015.53;2062287;28;3855;-68
2021/01/20 00:56:11;;;;;;;;;;;;;;;21.90;46.47;100010.66;2062958;28;3944;-68
2021/01/20 00:57:12;;;;;;;;;;;;;;;21.92;46.29;100011.91;2060767;28;4995;-67
2021/01/20 00:58:12;;;;;;;;;;;;;;;21.92;46.35;100014.75;2063047;28;3813;-68
2021/01/20 00:59:12;;;;;;;;;;;;;;;21.94;46.34;100014.38;2059072;28;3803;-68
2021/01/20 01:00:12;;;;;;;;;;;;;;;21.94;46.39;100014.38;2061409;28;3784;-68
2021/01/20 01:01:12;;;;;;;;;;;;;;;21.93;46.50;100013.56;2062294;28;3802;-68
2021/01/20 01:02:13;;;;;;;;;;;;;;;21.92;46.51;100013.94;2062815;28;3766;-67
2021/01/20 01:03:13;;;;;;;;;;;;;;;21.94;46.21;100011.53;2061936;28;4915;-68
2021/01/20 01:04:13;;;;;;;;;;;;;;;21.92;46.50;100011.09;2061073;28;3789;-67
2021/01/20 01:05:14;;;;;;;;;;;;;;;21.94;46.59;100008.66;2060055;28;4171;-68
2021/01/20 01:06:15;;;;;;;;;;;;;;;21.93;46.65;100007.03;2062123;28;3795;-68
2021/01/20 01:07:15;;;;;;;;;;;;;;;21.94;46.57;100008.66;2061351;28;3955;-68
2021/01/20 01:08:15;;;;;;;;;;;;;;;21.93;46.66;100002.16;2063655;28;3796;-68
2021/01/20 01:09:16;;;;;;;;;;;;;;;21.91;46.67;100001.72;2053429;28;3822;-68
2021/01/20 01:10:16;;;;;;;;;;;;;;;21.88;46.95;100004.50;2051437;28;3771;-68
2021/01/20 01:11:16;;;;;;;;;;;;;;;21.90;46.95;99999.25;2060444;28;3804;-69
2021/01/20 01:12:16;;;;;;;;;;;;;;;21.88;46.90;99999.63;2060628;28;3781;-68
2021/01/20 01:13:16;;;;;;;;;;;;;;;21.86;46.70;99999.19;2061370;28;3929;-68
2021/01/20 01:14:16;;;;;;;;;;;;;;;21.89;46.74;100004.13;2061079;28;3759;-69
2021/01/20 01:15:16;;;;;;;;;;;;;;;21.92;46.66;100002.56;2061245;28;3917;-67
2021/01/20 01:16:16;;;;;;;;;;;;;;;21.86;46.70;99998.34;2053338;28;3783;-68
2021/01/20 01:17:16;;;;;;;;;;;;;;;21.85;46.71;100008.09;2051863;28;3929;-68
2021/01/20 01:18:17;;;;;;;;;;;;;;;21.87;46.82;100011.41;2061278;28;3887;-68
2021/01/20 01:19:17;;;;;;;;;;;;;;;21.83;46.70;100013.34;2061143;28;3933;-68
2021/01/20 01:20:17;;;;;;;;;;;;;;;21.87;46.49;100008.56;2052928;28;3963;-68
2021/01/20 01:21:17;;;;;;;;;;;;;;;21.85;46.53;100005.25;2051871;28;3774;-68
2021/01/20 01:22:17;;;;;;;;;;;;;;;21.84;46.40;100006.47;2061174;28;3948;-68
2021/01/20 01:23:17;;;;;;;;;;;;;;;21.84;46.59;100010.13;2061065;28;3744;-69
2021/01/20 01:24:17;;;;;;;;;;;;;;;21.85;46.48;100011.78;2061615;28;3764;-69
2021/01/20 01:25:17;;;;;;;;;;;;;;;21.86;46.51;100013.44;2062045;28;3936;-67
2021/01/20 01:26:17;;;;;;;;;;;;;;;21.90;46.53;100013.50;2059988;28;3939;-68
2021/01/20 01:27:18;;;;;;;;;;;;;;;21.88;46.69;100011.00;2061568;28;3820;-67
2021/01/20 01:28:18;;;;;;;;;;;;;;;21.91;46.61;100017.97;2061047;28;3998;-67
2021/01/20 01:29:18;;;;;;;;;;;;;;;21.92;46.57;100011.09;2060587;28;3999;-67
2021/01/20 01:30:18;;;;;;;;;;;;;;;21.92;46.60;100002.56;2061371;28;3794;-67
2021/01/20 01:31:18;;;;;;;;;;;;;;;21.92;46.45;100011.09;2060248;28;3790;-67
2021/01/20 01:32:18;;;;;;;;;;;;;;;21.90;46.48;100013.50;2061551;28;3931;-68
2021/01/20 01:33:18;;;;;;;;;;;;;;;21.91;46.63;100015.13;2061142;28;3769;-68
2021/01/20 01:34:18;;;;;;;;;;;;;;;21.94;46.69;100014.38;2060546;28;3814;-68
2021/01/20 01:35:18;;;;;;;;;;;;;;;21.87;46.46;100005.72;2061190;28;3790;-68
2021/01/20 01:36:18;;;;;;;;;;;;;;;21.85;46.60;100006.09;2061878;28;3933;-69
2021/01/20 01:37:19;;;;;;;;;;;;;;;21.86;46.42;100006.91;2061579;28;3933;-67
2021/01/20 01:38:19;;;;;;;;;;;;;;;21.84;46.43;100006.47;2061169;28;3981;-68
2021/01/20 01:39:19;;;;;;;;;;;;;;;21.83;46.65;100007.66;2059773;28;3812;-68
2021/01/20 01:40:19;;;;;;;;;;;;;;;21.83;46.58;100004.81;2060658;28;3962;-68
2021/01/20 01:41:19;;;;;;;;;;;;;;;21.83;46.44;100008.47;2060583;28;3935;-69
2021/01/20 01:42:19;;;;;;;;;;;;;;;21.80;46.64;100010.06;2062231;28;3934;-69
2021/01/20 01:43:19;;;;;;;;;;;;;;;21.84;46.56;100009.31;2053232;28;3751;-68
2021/01/20 01:44:20;;;;;;;;;;;;;;;21.84;46.59;100012.16;2052057;28;3762;-68
2021/01/20 01:45:20;;;;;;;;;;;;;;;21.80;46.65;100014.94;2053037;28;3824;-68
2021/01/20 01:46:20;;;;;;;;;;;;;;;21.84;46.38;100013.00;2052846;28;3956;-67
2021/01/20 01:47:20;;;;;;;;;;;;;;;21.84;46.64;100003.63;2062368;28;3805;-68
2021/01/20 01:48:20;;;;;;;;;;;;;;;21.86;46.70;100007.75;2061257;28;3914;-67
2021/01/20 01:49:20;;;;;;;;;;;;;;;21.85;46.68;100010.97;2060918;28;3956;-68
2021/01/20 01:50:20;;;;;;;;;;;;;;;21.83;46.55;100004.81;2061031;28;3926;-68
2021/01/20 01:51:20;;;;;;;;;;;;;;;21.86;46.60;100012.59;2060844;28;3962;-68
2021/01/20 01:52:20;;;;;;;;;;;;;;;21.85;46.57;100013.81;2060459;28;3870;-67
2021/01/20 01:53:21;;;;;;;;;;;;;;;21.86;46.54;100006.91;2061113;28;3776;-67
2021/01/20 01:54:21;;;;;;;;;;;;;;;21.83;46.66;100013.34;2061178;28;3816;-68
2021/01/20 01:55:21;;;;;;;;;;;;;;;21.82;46.62;100012.53;2060889;28;3786;-67
2021/01/20 01:56:21;;;;;;;;;;;;;;;21.80;46.83;100010.06;2060717;28;3799;-68
2021/01/20 01:57:21;;;;;;;;;;;;;;;21.80;46.61;100006.38;2061287;28;3885;-68
2021/01/20 01:58:21;;;;;;;;;;;;;;;21.80;46.66;100015.75;2062155;28;3793;-67
2021/01/20 01:59:21;;;;;;;;;;;;;;;21.80;46.46;100009.25;2062678;28;3954;-67
2021/01/20 02:00:21;;;;;;;;;;;;;;;21.79;46.76;100014.13;2060189;28;3742;-67
2021/01/20 02:01:21;;;;;;;;;;;;;;;21.81;46.72;100008.06;2059393;28;3872;-68
2021/01/20 02:02:21;;;;;;;;;;;;;;;21.79;46.48;100008.41;2061568;28;3769;-67
2021/01/20 02:03:22;;;;;;;;;;;;;;;21.76;46.82;100003.47;2060553;28;3925;-67
2021/01/20 02:04:22;;;;;;;;;;;;;;;21.78;46.59;100003.94;2061344;28;3778;-67
2021/01/20 02:05:22;;;;;;;;;;;;;;;21.77;46.57;100005.13;2061233;28;3762;-67
2021/01/20 02:06:22;;;;;;;;;;;;;;;21.81;46.50;100010.91;2060293;28;3908;-67
2021/01/20 02:07:22;;;;;;;;;;;;;;;21.79;46.43;100008.41;2059888;28;3842;-67
2021/01/20 02:08:22;;;;;;;;;;;;;;;21.79;46.44;100010.44;2060111;28;3777;-68
2021/01/20 02:09:22;;;;;;;;;;;;;;;21.77;46.56;100013.66;2061913;28;3891;-67
2021/01/20 02:10:22;;;;;;;;;;;;;;;21.78;46.43;100014.50;2061722;28;3818;-67
2021/01/20 02:11:23;;;;;;;;;;;;;;;21.82;46.41;100008.88;2051307;28;3924;-67
2021/01/20 02:12:23;;;;;;;;;;;;;;;21.80;46.47;100021.44;2052975;28;3941;-67
2021/01/20 02:13:26;;;;;;;;;;;;;;;21.80;46.41;100015.75;2060761;28;4103;-67
2021/01/20 02:14:27;;;;;;;;;;;;;;;21.78;46.39;100018.19;2054741;28;4853;-67
2021/01/20 02:15:27;;;;;;;;;;;;;;;21.80;46.27;100018.59;2055812;28;3961;-67
2021/01/20 02:16:27;;;;;;;;;;;;;;;21.80;46.38;100015.75;2060521;28;4025;-68
2021/01/20 02:17:27;;;;;;;;;;;;;;;21.82;46.25;100012.53;2060912;28;3928;-68
2021/01/20 02:18:27;;;;;;;;;;;;;;;21.80;46.36;100024.28;2060612;28;3962;-67
2021/01/20 02:19:27;;;;;;;;;;;;;;;21.80;46.42;100014.94;2062276;28;4195;-67
2021/01/20 02:20:27;;;;;;;;;;;;;;;21.79;46.39;100019.81;2060718;28;4031;-68
2021/01/20 02:21:27;;;;;;;;;;;;;;;21.82;46.31;100014.56;2059380;28;3955;-67
2021/01/20 02:22:27;;;;;;;;;;;;;;;21.79;46.51;100019.81;2053781;28;4006;-67
2021/01/20 02:23:28;;;;;;;;;;;;;;;21.78;46.50;100015.31;2052496;28;4948;-68
2021/01/20 02:24:28;;;;;;;;;;;;;;;21.77;46.36;100010.81;2052345;28;3955;-67
2021/01/20 02:25:28;;;;;;;;;;;;;;;21.77;46.43;100007.97;2052836;28;3798;-67
2021/01/20 02:26:28;;;;;;;;;;;;;;;21.76;46.49;100014.06;2060102;28;3952;-67
2021/01/20 02:27:28;;;;;;;;;;;;;;;21.77;46.45;100010.81;2059851;28;3948;-67
2021/01/20 02:28:28;;;;;;;;;;;;;;;21.75;46.45;100018.94;2058052;28;4056;-67
2021/01/20 02:29:29;;;;;;;;;;;;;;;21.77;46.18;100013.66;2058942;28;3958;-67
2021/01/20 02:30:29;;;;;;;;;;;;;;;21.76;46.31;100011.22;2059965;28;3962;-68
2021/01/20 02:31:29;;;;;;;;;;;;;;;21.74;46.43;100011.56;2057370;28;3822;-67
2021/01/20 02:32:29;;;;;;;;;;;;;;;21.74;46.40;100014.41;2060164;28;3970;-67
2021/01/20 02:33:29;;;;;;;;;;;;;;;21.74;46.47;100013.59;2061446;28;3792;-67
2021/01/20 02:34:29;;;;;;;;;;;;;;;21.77;46.40;100015.69;2061978;28;3810;-67
2021/01/20 02:35:29;;;;;;;;;;;;;;;21.76;46.36;100014.06;2061199;28;3808;-68
2021/01/20 02:36:30;;;;;;;;;;;;;;;21.74;46.50;100016.44;2060202;28;3866;-68
2021/01/20 02:37:30;;;;;;;;;;;;;;;21.75;46.46;100015.25;2061083;28;4993;-67
2021/01/20 02:38:30;;;;;;;;;;;;;;;21.75;46.48;100009.53;2060814;28;3803;-67
2021/01/20 02:39:30;;;;;;;;;;;;;;;21.76;46.38;100012.03;2060235;28;4032;-67
2021/01/20 02:40:30;;;;;;;;;;;;;;;21.77;46.51;100018.53;2060174;28;4058;-67
2021/01/20 02:41:30;;;;;;;;;;;;;;;21.77;46.22;100016.50;2061062;28;4018;-67
2021/01/20 02:42:31;;;;;;;;;;;;;;;21.81;46.32;100025.13;2060829;28;4029;-67
2021/01/20 02:43:31;;;;;;;;;;;;;;;21.78;46.37;100018.19;2060710;28;3980;-67
2021/01/20 02:44:31;;;;;;;;;;;;;;;21.76;46.44;100023.41;2059656;28;3794;-67
2021/01/20 02:45:31;;;;;;;;;;;;;;;21.78;46.36;100015.31;2060998;28;3823;-68
2021/01/20 02:46:31;;;;;;;;;;;;;;;21.79;46.17;100025.50;2060074;28;3956;-67
2021/01/20 02:47:31;;;;;;;;;;;;;;;21.78;46.40;100021.03;2052341;28;3985;-67
2021/01/20 02:48:31;;;;;;;;;;;;;;;21.77;46.38;100022.19;2052251;28;3810;-67
2021/01/20 02:49:32;;;;;;;;;;;;;;;21.73;46.35;100018.47;2060205;28;3952;-67
2021/01/20 02:50:32;;;;;;;;;;;;;;;21.75;46.44;100018.09;2061130;28;3866;-68
2021/01/20 02:51:32;;;;;;;;;;;;;;;21.76;46.56;100023.41;2059800;28;3952;-68
2021/01/20 02:52:32;;;;;;;;;;;;;;;21.79;46.82;100025.50;2051943;28;3983;-68
2021/01/20 02:53:32;;;;;;;;;;;;;;;21.83;46.67;100030.44;2052310;28;3975;-67
2021/01/20 02:54:32;;;;;;;;;;;;;;;21.84;46.74;100023.56;2060763;28;4367;-67
2021/01/20 02:55:32;;;;;;;;;;;;;;;21.83;46.63;100028.41;2052683;28;3851;-68
2021/01/20 02:56:32;;;;;;;;;;;;;;;21.80;46.53;100037.72;2051586;28;3807;-67
2021/01/20 02:57:32;;;;;;;;;;;;;;;21.80;46.65;100032.84;2061848;28;3943;-67
2021/01/20 02:58:33;;;;;;;;;;;;;;;21.77;46.76;100035.63;2060575;28;3957;-67
2021/01/20 02:59:33;;;;;;;;;;;;;;;21.79;46.91;100030.38;2059486;28;3843;-66
2021/01/20 03:00:33;;;;;;;;;;;;;;;21.79;46.69;100034.03;2059172;28;4011;-67
2021/01/20 03:01:34;;;;;;;;;;;;;;;21.81;46.58;100033.69;2061200;28;3955;-67
2021/01/20 03:02:34;;;;;;;;;;;;;;;21.82;46.62;100035.31;2060841;28;4018;-67
2021/01/20 03:03:34;;;;;;;;;;;;;;;21.82;46.60;100034.50;2060827;28;4008;-67
2021/01/20 03:04:34;;;;;;;;;;;;;;;21.85;46.57;100036.59;2060963;28;3777;-67
2021/01/20 03:05:34;;;;;;;;;;;;;;;21.83;46.61;100047.53;2061269;28;4053;-67
2021/01/20 03:06:34;;;;;;;;;;;;;;;21.84;46.66;100043.50;2061635;28;4163;-67
2021/01/20 03:07:34;;;;;;;;;;;;;;;21.86;46.67;100035.38;2063654;28;3829;-68
2021/01/20 03:08:34;;;;;;;;;;;;;;;21.83;46.68;100033.28;2061562;28;3861;-67
2021/01/20 03:09:34;;;;;;;;;;;;;;;21.85;46.64;100022.34;2062062;28;4017;-68
2021/01/20 03:10:34;;;;;;;;;;;;;;;21.85;46.53;100030.88;2053902;28;3793;-68
2021/01/20 03:11:34;;;;;;;;;;;;;;;21.85;46.45;100040.25;2052978;28;4049;-68
2021/01/20 03:12:34;;;;;;;;;;;;;;;21.85;46.61;100033.75;2062473;28;4188;-68
2021/01/20 03:13:35;;;;;;;;;;;;;;;21.81;46.75;100025.13;2060913;28;3966;-67
2021/01/20 03:14:35;;;;;;;;;;;;;;;21.83;46.59;100031.25;2062049;28;3795;-67
2021/01/20 03:15:35;;;;;;;;;;;;;;;21.83;46.49;100031.25;2061343;28;4388;-68
2021/01/20 03:16:35;;;;;;;;;;;;;;;21.81;46.67;100019.44;2062590;28;3835;-67
2021/01/20 03:17:36;;;;;;;;;;;;;;;21.82;46.68;100020.25;2061838;28;3843;-67
2021/01/20 03:18:36;;;;;;;;;;;;;;;21.82;46.77;100028.81;2061826;28;3964;-67
2021/01/20 03:19:36;;;;;;;;;;;;;;;21.80;46.73;100024.28;2062029;28;3973;-68
2021/01/20 03:20:36;;;;;;;;;;;;;;;21.80;46.72;100012.91;2062163;28;4032;-68
2021/01/20 03:21:36;;;;;;;;;;;;;;;21.82;46.59;100014.56;2061674;28;3953;-68
2021/01/20 03:22:36;;;;;;;;;;;;;;;21.80;46.66;100014.94;2062357;28;3960;-67
2021/01/20 03:23:36;;;;;;;;;;;;;;;21.82;46.79;100012.53;2061954;28;4122;-67
2021/01/20 03:24:36;;;;;;;;;;;;;;;21.81;46.73;100019.44;2062284;28;3938;-68
2021/01/20 03:25:36;;;;;;;;;;;;;;;21.79;46.93;100014.13;2062129;28;3845;-67
2021/01/20 03:26:37;;;;;;;;;;;;;;;21.81;46.91;100013.75;2061584;28;3968;-67
2021/01/20 03:27:37;;;;;;;;;;;;;;;21.82;46.89;100015.38;2062124;28;3818;-68
2021/01/20 03:28:37;;;;;;;;;;;;;;;21.84;46.86;100018.69;2062001;28;4103;-67
2021/01/20 03:29:37;;;;;;;;;;;;;;;21.86;46.58;100019.13;2062669;28;5004;-68
2021/01/20 03:30:37;;;;;;;;;;;;;;;21.86;46.54;100012.59;2062185;28;3958;-67
2021/01/20 03:31:37;;;;;;;;;;;;;;;21.87;47.02;100019.94;2060805;28;4071;-67
2021/01/20 03:32:37;;;;;;;;;;;;;;;21.85;46.61;100014.63;2062994;28;3822;-68
2021/01/20 03:33:37;;;;;;;;;;;;;;;21.85;46.94;100010.97;2061644;28;3834;-68
2021/01/20 03:34:37;;;;;;;;;;;;;;;21.85;46.81;100010.97;2062071;28;3787;-67
2021/01/20 03:35:37;;;;;;;;;;;;;;;21.86;46.78;100012.59;2061952;28;3828;-67
2021/01/20 03:36:38;;;;;;;;;;;;;;;21.86;46.88;100015.44;2061705;28;4007;-67
2021/01/20 03:37:38;;;;;;;;;;;;;;;21.85;47.03;100008.09;2062498;28;3999;-67
2021/01/20 03:38:38;;;;;;;;;;;;;;;21.84;46.82;100009.31;2062202;28;3958;-68
2021/01/20 03:39:38;;;;;;;;;;;;;;;21.80;46.91;100001.50;2063746;28;3795;-68
2021/01/20 03:40:38;;;;;;;;;;;;;;;21.80;46.99;100006.38;2062405;28;3995;-68
2021/01/20 03:41:38;;;;;;;;;;;;;;;21.84;47.10;99997.94;2060565;28;4013;-67
2021/01/20 03:42:38;;;;;;;;;;;;;;;21.80;47.04;100001.50;2060930;28;3944;-67
2021/01/20 03:43:38;;;;;;;;;;;;;;;21.80;47.06;99998.66;2062331;28;4153;-68
2021/01/20 03:44:38;;;;;;;;;;;;;;;21.79;47.05;100002.72;2061919;28;3802;-68
2021/01/20 03:45:39;;;;;;;;;;;;;;;21.82;47.09;100000.34;2062823;28;3794;-68
2021/01/20 03:46:39;;;;;;;;;;;;;;;21.85;47.10;99999.56;2061158;28;3808;-68
2021/01/20 03:47:39;;;;;;;;;;;;;;;21.82;47.27;99992.59;2063417;28;3800;-67
2021/01/20 03:48:39;;;;;;;;;;;;;;;21.82;47.24;99995.44;2062003;28;3870;-67
2021/01/20 03:49:39;;;;;;;;;;;;;;;21.85;47.31;99993.88;2061152;28;4053;-67
2021/01/20 03:50:39;;;;;;;;;;;;;;;21.84;47.23;99995.91;2062272;28;4717;-67
2021/01/20 03:51:39;;;;;;;;;;;;;;;21.85;47.24;99996.72;2061247;28;4247;-67
2021/01/20 03:52:39;;;;;;;;;;;;;;;21.85;47.25;99994.69;2055297;28;3994;-68
2021/01/20 03:53:39;;;;;;;;;;;;;;;21.84;47.04;99990.22;2056424;28;3820;-68
2021/01/20 03:54:39;;;;;;;;;;;;;;;21.85;47.17;99986.16;2061686;28;3939;-67
2021/01/20 03:55:39;;;;;;;;;;;;;;;21.84;47.21;99986.53;2062274;28;3780;-68
2021/01/20 03:56:40;;;;;;;;;;;;;;;21.85;47.15;99983.31;2062548;28;3932;-68
2021/01/20 03:57:40;;;;;;;;;;;;;;;21.88;47.11;99976.84;2060998;28;4007;-67
2021/01/20 03:58:40;;;;;;;;;;;;;;;21.89;47.27;99981.34;2062495;28;3780;-67
2021/01/20 03:59:40;;;;;;;;;;;;;;;21.91;47.45;99975.25;2061266;28;3933;-67
2021/01/20 04:00:40;;;;;;;;;;;;;;;21.91;47.44;99978.09;2063502;28;3781;-67
2021/01/20 04:01:40;;;;;;;;;;;;;;;21.89;47.58;99972.81;2062277;28;3801;-67
2021/01/20 04:02:40;;;;;;;;;;;;;;;21.88;47.42;99978.88;2062188;28;3819;-66
2021/01/20 04:03:40;;;;;;;;;;;;;;;21.91;47.32;99981.78;2061612;28;3821;-67
2021/01/20 04:04:40;;;;;;;;;;;;;;;21.90;47.09;99965.91;2061906;28;3813;-67
2021/01/20 04:05:40;;;;;;;;;;;;;;;21.91;46.97;99978.09;2062381;28;3940;-67
2021/01/20 04:06:40;;;;;;;;;;;;;;;21.90;46.98;99973.63;2061782;28;3979;-66
2021/01/20 04:07:41;;;;;;;;;;;;;;;21.86;47.14;99969.88;2061562;28;4732;-67
2021/01/20 04:08:41;;;;;;;;;;;;;;;21.84;47.17;99958.88;2061669;28;3821;-66
2021/01/20 04:09:41;;;;;;;;;;;;;;;21.85;47.25;99959.69;2061620;28;4097;-67
2021/01/20 04:10:41;;;;;;;;;;;;;;;21.85;46.95;99959.69;2062358;28;3799;-67
2021/01/20 04:11:41;;;;;;;;;;;;;;;21.80;47.15;99963.69;2061435;28;3803;-67
2021/01/20 04:12:41;;;;;;;;;;;;;;;21.82;47.25;99966.16;2061077;28;3931;-67
2021/01/20 04:13:41;;;;;;;;;;;;;;;21.82;47.21;99969.00;2061723;28;4086;-67
2021/01/20 04:14:41;;;;;;;;;;;;;;;21.84;47.05;99958.06;2061643;28;3960;-67
2021/01/20 04:15:41;;;;;;;;;;;;;;;21.83;47.14;99959.25;2062343;28;4317;-66
2021/01/20 04:16:41;;;;;;;;;;;;;;;21.79;47.12;99956.34;2061461;28;3991;-66
2021/01/20 04:17:42;;;;;;;;;;;;;;;21.79;47.21;99962.88;2061146;28;3839;-66
2021/01/20 04:18:42;;;;;;;;;;;;;;;21.79;47.08;99956.34;2060930;28;3943;-67
2021/01/20 04:19:42;;;;;;;;;;;;;;;21.76;47.14;99957.13;2060765;28;3932;-67
2021/01/20 04:20:42;;;;;;;;;;;;;;;21.77;47.18;99951.03;2061608;28;5036;-66
2021/01/20 04:21:42;;;;;;;;;;;;;;;21.79;47.04;99954.31;2060708;28;3807;-67
2021/01/20 04:22:42;;;;;;;;;;;;;;;21.75;47.23;99953.44;2061449;28;3959;-67
2021/01/20 04:23:42;;;;;;;;;;;;;;;21.79;47.11;99956.34;2062465;28;4034;-67
2021/01/20 04:24:42;;;;;;;;;;;;;;;21.73;47.26;99950.16;2061306;28;3956;-67
2021/01/20 04:25:42;;;;;;;;;;;;;;;21.74;47.03;99948.94;2061882;28;3969;-66
2021/01/20 04:26:42;;;;;;;;;;;;;;;21.75;47.14;99949.75;2061615;28;3934;-67
2021/01/20 04:27:43;;;;;;;;;;;;;;;21.76;47.20;99952.25;2061222;28;3991;-67
2021/01/20 04:28:43;;;;;;;;;;;;;;;21.74;47.04;99956.66;2053288;28;3995;-67
2021/01/20 04:29:43;;;;;;;;;;;;;;;21.75;46.95;99950.59;2053875;28;4685;-67
2021/01/20 04:30:43;;;;;;;;;;;;;;;21.73;47.24;99947.31;2062433;28;3810;-67
2021/01/20 04:31:43;;;;;;;;;;;;;;;21.71;47.13;99944.00;2060030;28;3817;-67
2021/01/20 04:32:43;;;;;;;;;;;;;;;21.73;47.11;99947.31;2062498;28;3876;-67
2021/01/20 04:33:43;;;;;;;;;;;;;;;21.73;47.19;99946.50;2061757;28;3825;-67
2021/01/20 04:34:43;;;;;;;;;;;;;;;21.75;46.91;99944.91;2060999;28;3937;-67
2021/01/20 04:35:43;;;;;;;;;;;;;;;21.75;47.15;99950.59;2061744;28;3967;-67
2021/01/20 04:36:43;;;;;;;;;;;;;;;21.75;47.02;99947.75;2061508;28;3933;-67
2021/01/20 04:37:44;;;;;;;;;;;;;;;21.79;46.92;99953.50;2061198;28;3997;-67
2021/01/20 04:38:44;;;;;;;;;;;;;;;21.76;47.00;99951.41;2061308;28;3938;-67
2021/01/20 04:39:44;;;;;;;;;;;;;;;21.76;47.01;99940.84;2061008;28;3888;-67
2021/01/20 04:40:44;;;;;;;;;;;;;;;21.76;46.86;99943.69;2062944;28;3799;-67
2021/01/20 04:41:44;;;;;;;;;;;;;;;21.79;46.86;99934.41;2060505;28;3803;-67
2021/01/20 04:42:44;;;;;;;;;;;;;;;21.79;46.80;99944.97;2062762;28;3923;-67
2021/01/20 04:43:44;;;;;;;;;;;;;;;21.78;46.88;99943.34;2062496;28;3949;-67
2021/01/20 04:44:44;;;;;;;;;;;;;;;21.79;46.75;99948.63;2061548;28;3893;-67
2021/01/20 04:45:44;;;;;;;;;;;;;;;21.81;46.81;99934.03;2061051;28;3969;-67
2021/01/20 04:46:44;;;;;;;;;;;;;;;21.80;46.80;99938.88;2061723;28;3818;-67
2021/01/20 04:47:44;;;;;;;;;;;;;;;21.80;46.69;99946.59;2061692;28;3876;-67
2021/01/20 04:48:45;;;;;;;;;;;;;;;21.79;46.83;99945.78;2062240;28;3911;-67
2021/01/20 04:49:45;;;;;;;;;;;;;;;21.80;46.73;99941.72;2061633;28;3992;-67
2021/01/20 04:50:46;;;;;;;;;;;;;;;21.83;46.63;99933.63;2061338;28;3957;-68
2021/01/20 04:51:46;;;;;;;;;;;;;;;21.85;46.83;99931.22;2050721;28;3949;-68
2021/01/20 04:52:46;;;;;;;;;;;;;;;21.87;46.81;99934.53;2052934;28;3959;-67
2021/01/20 04:53:46;;;;;;;;;;;;;;;21.88;46.84;99939.00;2061545;28;3933;-68
2021/01/20 04:54:46;;;;;;;;;;;;;;;21.86;46.80;99942.25;2061814;28;3771;-67
2021/01/20 04:55:46;;;;;;;;;;;;;;;21.85;46.74;99934.06;2060880;28;3979;-67
2021/01/20 04:56:46;;;;;;;;;;;;;;;21.90;46.78;99945.16;2061678;28;3958;-67
2021/01/20 04:57:46;;;;;;;;;;;;;;;21.91;46.65;99943.94;2062159;28;3865;-68
2021/01/20 04:58:46;;;;;;;;;;;;;;;21.87;46.53;99943.88;2061556;28;3773;-67
2021/01/20 04:59:46;;;;;;;;;;;;;;;21.89;46.80;99937.78;2061169;28;4133;-68
2021/01/20 05:00:47;;;;;;;;;;;;;;;21.90;46.52;99937.44;2061184;28;3803;-68
2021/01/20 05:01:47;;;;;;;;;;;;;;;21.94;47.17;99938.28;2060597;28;3965;-68
2021/01/20 05:02:47;;;;;;;;;;;;;;;21.99;47.39;99942.84;2061336;28;3966;-68
2021/01/20 05:03:47;;;;;;;;;;;;;;;21.99;46.66;99942.84;2061781;28;3989;-67
2021/01/20 05:04:47;;;;;;;;;;;;;;;21.93;46.85;99935.84;2060713;28;4921;-68
2021/01/20 05:05:47;;;;;;;;;;;;;;;21.95;46.91;99936.28;2060163;28;3980;-68
2021/01/20 05:06:47;;;;;;;;;;;;;;;21.95;46.78;99928.56;2053620;28;3782;-67
2021/01/20 05:07:47;;;;;;;;;;;;;;;21.94;46.64;99926.09;2053118;28;4025;-68
2021/01/20 05:08:48;;;;;;;;;;;;;;;21.92;46.65;99931.38;2061116;28;3996;-68
2021/01/20 05:09:48;;;;;;;;;;;;;;;21.91;46.71;99924.81;2062600;28;3797;-68
2021/01/20 05:10:48;;;;;;;;;;;;;;;21.91;46.76;99932.53;2060782;28;3801;-68
2021/01/20 05:11:48;;;;;;;;;;;;;;;21.88;46.80;99934.13;2051737;28;3852;-68
2021/01/20 05:12:48;;;;;;;;;;;;;;;21.91;46.84;99935.41;2052981;28;4163;-67
2021/01/20 05:13:48;;;;;;;;;;;;;;;21.89;46.74;99927.25;2059818;28;3818;-69
2021/01/20 05:14:48;;;;;;;;;;;;;;;21.89;46.68;99934.94;2062402;28;3781;-68